地図

経路データ

SID SEASON NUMBER BASIN SUBBASIN NAME ISO_TIME NATURE LAT LON WMO_WIND WMO_PRES WMO_AGENCY TRACK_TYPE DIST2LAND LANDFALL IFLAG USA_AGENCY USA_ATCF_ID USA_LAT USA_LON USA_RECORD USA_STATUS USA_WIND USA_PRES USA_SSHS USA_R34_NE USA_R34_SE USA_R34_SW USA_R34_NW USA_R50_NE USA_R50_SE USA_R50_SW USA_R50_NW USA_R64_NE USA_R64_SE USA_R64_SW USA_R64_NW USA_POCI USA_ROCI USA_RMW USA_EYE TOKYO_LAT TOKYO_LON TOKYO_GRADE TOKYO_WIND TOKYO_PRES TOKYO_R50_DIR TOKYO_R50_LONG TOKYO_R50_SHORT TOKYO_R30_DIR TOKYO_R30_LONG TOKYO_R30_SHORT TOKYO_LAND CMA_LAT CMA_LON CMA_CAT CMA_WIND CMA_PRES HKO_LAT HKO_LON HKO_CAT HKO_WIND HKO_PRES NEWDELHI_LAT NEWDELHI_LON NEWDELHI_GRADE NEWDELHI_WIND NEWDELHI_PRES NEWDELHI_CI NEWDELHI_DP NEWDELHI_POCI REUNION_LAT REUNION_LON REUNION_TYPE REUNION_WIND REUNION_PRES REUNION_TNUM REUNION_CI REUNION_RMW REUNION_R34_NE REUNION_R34_SE REUNION_R34_SW REUNION_R34_NW REUNION_R50_NE REUNION_R50_SE REUNION_R50_SW REUNION_R50_NW REUNION_R64_NE REUNION_R64_SE REUNION_R64_SW REUNION_R64_NW BOM_LAT BOM_LON BOM_TYPE BOM_WIND BOM_PRES BOM_TNUM BOM_CI BOM_RMW BOM_R34_NE BOM_R34_SE BOM_R34_SW BOM_R34_NW BOM_R50_NE BOM_R50_SE BOM_R50_SW BOM_R50_NW BOM_R64_NE BOM_R64_SE BOM_R64_SW BOM_R64_NW BOM_ROCI BOM_POCI BOM_EYE BOM_POS_METHOD BOM_PRES_METHOD NADI_LAT NADI_LON NADI_CAT NADI_WIND NADI_PRES WELLINGTON_LAT WELLINGTON_LON WELLINGTON_WIND WELLINGTON_PRES DS824_LAT DS824_LON DS824_STAGE DS824_WIND DS824_PRES TD9636_LAT TD9636_LON TD9636_STAGE TD9636_WIND TD9636_PRES TD9635_LAT TD9635_LON TD9635_WIND TD9635_PRES TD9635_ROCI NEUMANN_LAT NEUMANN_LON NEUMANN_CLASS NEUMANN_WIND NEUMANN_PRES MLC_LAT MLC_LON MLC_CLASS MLC_WIND MLC_PRES USA_GUST BOM_GUST BOM_GUST_PER REUNION_GUST REUNION_GUST_PER USA_SEAHGT USA_SEARAD_NE USA_SEARAD_SE USA_SEARAD_SW USA_SEARAD_NW STORM_SPEED STORM_DIR
1980275N34340 1980 84 NA NA IVAN 1980-10-01 00:00:00 ET 33.6000 -20.0000 25 1010 hurdat_atl main 663 663 O_____________ hurdat_atl AL141980 33.6000 -20.0000 EX 25 1010 -4 6 281
1980275N34340 1980 84 NA NA IVAN 1980-10-01 03:00:00 ET 33.6551 -20.3373 main 688 688 P_____________ AL141980 33.6551 -20.3373 EX 25 1010 -4 6 280
1980275N34340 1980 84 NA NA IVAN 1980-10-01 06:00:00 ET 33.7000 -20.7000 25 1010 hurdat_atl main 707 707 O_____________ hurdat_atl AL141980 33.7000 -20.7000 EX 25 1010 -4 6 277
1980275N34340 1980 84 NA NA IVAN 1980-10-01 09:00:00 ET 33.7350 -21.1002 main 728 728 P_____________ AL141980 33.7350 -21.1002 EX 25 1010 -4 7 279
1980275N34340 1980 84 NA NA IVAN 1980-10-01 12:00:00 ET 33.8000 -21.5000 25 1010 hurdat_atl main 758 758 O_____________ hurdat_atl AL141980 33.8000 -21.5000 EX 25 1010 -4 7 287
1980275N34340 1980 84 NA NA IVAN 1980-10-01 15:00:00 ET 33.9274 -21.8650 main 790 790 P_____________ AL141980 33.9274 -21.8650 EX 25 1010 -4 7 297
1980275N34340 1980 84 NA NA IVAN 1980-10-01 18:00:00 ET 34.1000 -22.2000 25 1010 hurdat_atl main 825 825 O_____________ hurdat_atl AL141980 34.1000 -22.2000 EX 25 1010 -4 6 304
1980275N34340 1980 84 NA NA IVAN 1980-10-01 21:00:00 ET 34.2849 -22.5151 main 860 860 P_____________ AL141980 34.2849 -22.5151 EX 25 1010 -4 6 309
1980275N34340 1980 84 NA NA IVAN 1980-10-02 00:00:00 ET 34.5000 -22.8000 25 1010 hurdat_atl main 894 894 O_____________ hurdat_atl AL141980 34.5000 -22.8000 EX 25 1010 -4 6 314
1980275N34340 1980 84 NA NA IVAN 1980-10-02 03:00:00 ET 34.7274 -23.0652 main 929 929 P_____________ AL141980 34.7274 -23.0652 EX 25 1009 -4 6 321
1980275N34340 1980 84 NA NA IVAN 1980-10-02 06:00:00 ET 35.0000 -23.3000 25 1009 hurdat_atl main 966 966 O_____________ hurdat_atl AL141980 35.0000 -23.3000 EX 25 1009 -4 7 328
1980275N34340 1980 84 NA NA IVAN 1980-10-02 09:00:00 ET 35.3275 -23.5299 main 1004 1004 P_____________ AL141980 35.3275 -23.5299 EX 25 1009 -4 8 335
1980275N34340 1980 84 NA NA IVAN 1980-10-02 12:00:00 ET 35.7000 -23.7000 25 1009 hurdat_atl main 1049 1049 O_____________ hurdat_atl AL141980 35.7000 -23.7000 EX 25 1009 -4 8 344
1980275N34340 1980 84 NA NA IVAN 1980-10-02 15:00:00 ET 36.0999 -23.8024 main 1089 1089 P_____________ AL141980 36.0999 -23.8024 EX 25 1009 -4 8 354
1980275N34340 1980 84 NA NA IVAN 1980-10-02 18:00:00 ET 36.5000 -23.8000 25 1009 hurdat_atl main 1124 1124 O_____________ hurdat_atl AL141980 36.5000 -23.8000 EX 25 1009 -4 8 7
1980275N34340 1980 84 NA NA IVAN 1980-10-02 21:00:00 ET 36.8650 -23.6877 main 1155 1155 P_____________ AL141980 36.8650 -23.6877 EX 25 1009 -4 7 19
1980275N34340 1980 84 NA NA IVAN 1980-10-03 00:00:00 ET 37.2000 -23.5000 25 1009 hurdat_atl main 1172 1172 O_____________ hurdat_atl AL141980 37.2000 -23.5000 EX 25 1009 -4 7 25
1980275N34340 1980 84 NA NA IVAN 1980-10-03 03:00:00 ET 37.4849 -23.3219 main 1190 1187 P_____________ AL141980 37.4849 -23.3219 EX 25 1009 -4 7 28
1980275N34340 1980 84 NA NA IVAN 1980-10-03 06:00:00 ET 37.8000 -23.1000 25 1009 hurdat_atl main 1187 1162 O_____________ hurdat_atl AL141980 37.8000 -23.1000 EX 25 1009 -4 9 24
1980275N34340 1980 84 NA NA IVAN 1980-10-03 09:00:00 ET 38.3097 -22.8536 main 1162 1123 P_____________ AL141980 38.3097 -22.8536 EX 25 1008 -4 10 28
1980275N34340 1980 84 NA NA IVAN 1980-10-03 12:00:00 ET 38.7000 -22.5000 25 1008 hurdat_atl main 1123 1071 O_____________ hurdat_atl AL141980 38.7000 -22.5000 EX 25 1008 -4 9 61
1980275N34340 1980 84 NA NA IVAN 1980-10-03 15:00:00 ET 38.7285 -21.8732 main 1071 1029 P_____________ AL141980 38.7285 -21.8732 EX 25 1007 -4 9 103
1980275N34340 1980 84 NA NA IVAN 1980-10-03 18:00:00 ET 38.5000 -21.4000 25 1007 hurdat_atl main 1030 1030 O_____________ hurdat_atl AL141980 38.5000 -21.4000 EX 25 1007 -4 7 151
1980275N34340 1980 84 NA NA IVAN 1980-10-03 21:00:00 ET 38.1370 -21.4505 main 1044 1044 P_____________ AL141980 38.1370 -21.4505 EX 25 1006 -4 9 201
1980275N34340 1980 84 NA NA IVAN 1980-10-04 00:00:00 ET 37.7000 -21.8000 25 1006 hurdat_atl main 1077 1077 O_____________ hurdat_atl AL141980 37.7000 -21.8000 EX 25 1006 -4 10 217
1980275N34340 1980 84 NA NA IVAN 1980-10-04 03:00:00 ET 37.3278 -22.2204 main 1119 1109 P_____________ AL141980 37.3278 -22.2204 EX 25 1005 -4 10 226
1980275N34340 1980 84 NA NA IVAN 1980-10-04 06:00:00 ET 37.0000 -22.7000 25 1005 hurdat_atl main 1114 1110 O_____________ hurdat_atl AL141980 37.0000 -22.7000 EX 25 1005 -4 9 231
1980275N34340 1980 84 NA NA IVAN 1980-10-04 09:00:00 ET 36.7645 -23.0836 main 1115 1103 P_____________ AL141980 36.7645 -23.0836 EX 27 1002 -4 8 232
1980275N34340 1980 84 NA NA IVAN 1980-10-04 12:00:00 TS 36.5000 -23.5000 30 1000 hurdat_atl main 1108 1101 O_____________ hurdat_atl AL141980 36.5000 -23.5000 TD 30 1000 -1 10 229
1980275N34340 1980 84 NA NA IVAN 1980-10-04 15:00:00 TS 36.1025 -24.0273 main 1101 1093 P_____________ AL141980 36.1025 -24.0273 TD 35 999 0 13 225
1980275N34340 1980 84 NA NA IVAN 1980-10-04 18:00:00 TS 35.6000 -24.6000 40 998 hurdat_atl main 1095 1082 O_____________ hurdat_atl AL141980 35.6000 -24.6000 TS 40 998 0 14 220
1980275N34340 1980 84 NA NA IVAN 1980-10-04 21:00:00 TS 35.0073 -25.1500 main 1082 1081 P_____________ AL141980 35.0073 -25.1500 TS 45 997 0 15 217
1980275N34340 1980 84 NA NA IVAN 1980-10-05 00:00:00 TS 34.4000 -25.7000 50 996 hurdat_atl main 1083 1077 O_____________ hurdat_atl AL141980 34.4000 -25.7000 TS 50 996 0 14 218
1980275N34340 1980 84 NA NA IVAN 1980-10-05 03:00:00 TS 33.8843 -26.2186 main 1089 1089 P_____________ AL141980 33.8843 -26.2186 TS 52 995 0 14 222
1980275N34340 1980 84 NA NA IVAN 1980-10-05 06:00:00 TS 33.4000 -26.8000 55 995 hurdat_atl main 1109 1109 O_____________ hurdat_atl AL141980 33.4000 -26.8000 TS 55 995 0 15 228
1980275N34340 1980 84 NA NA IVAN 1980-10-05 09:00:00 TS 32.9078 -27.5348 main 1143 1143 P_____________ AL141980 32.9078 -27.5348 TS 57 994 0 16 232
1980275N34340 1980 84 NA NA IVAN 1980-10-05 12:00:00 TS 32.4000 -28.3000 60 994 hurdat_atl main 1192 1192 O_____________ hurdat_atl AL141980 32.4000 -28.3000 TS 60 994 0 16 230
1980275N34340 1980 84 NA NA IVAN 1980-10-05 15:00:00 TS 31.8648 -28.9945 main 1238 1235 P_____________ AL141980 31.8648 -28.9945 TS 60 993 0 16 225
1980275N34340 1980 84 NA NA IVAN 1980-10-05 18:00:00 TS 31.3000 -29.6000 60 993 hurdat_atl main 1277 1277 O_____________ hurdat_atl AL141980 31.3000 -29.6000 TS 60 993 0 15 219
1980275N34340 1980 84 NA NA IVAN 1980-10-05 21:00:00 TS 30.6922 -30.1021 main 1312 1312 P_____________ AL141980 30.6922 -30.1021 TS 62 992 0 14 213
1980275N34340 1980 84 NA NA IVAN 1980-10-06 00:00:00 TS 30.1000 -30.5000 65 992 hurdat_atl main 1342 1341 O_____________ hurdat_atl AL141980 30.1000 -30.5000 HU 65 992 1 13 210
1980275N34340 1980 84 NA NA IVAN 1980-10-06 03:00:00 TS 29.5624 -30.8522 main 1377 1376 P_____________ AL141980 29.5624 -30.8522 HU 70 988 1 11 208
1980275N34340 1980 84 NA NA IVAN 1980-10-06 06:00:00 TS 29.1000 -31.1000 75 985 hurdat_atl main 1395 1395 O_____________ hurdat_atl AL141980 29.1000 -31.1000 HU 75 985 1 9 202
1980275N34340 1980 84 NA NA IVAN 1980-10-06 09:00:00 TS 28.6974 -31.2597 main 1415 1415 P_____________ AL141980 28.6974 -31.2597 HU 80 980 1 7 194
1980275N34340 1980 84 NA NA IVAN 1980-10-06 12:00:00 TS 28.4000 -31.3000 85 976 hurdat_atl main 1416 1416 O_____________ hurdat_atl AL141980 28.4000 -31.3000 HU 85 976 2 5 179
1980275N34340 1980 84 NA NA IVAN 1980-10-06 15:00:00 TS 28.2050 -31.2448 main 1408 1399 P_____________ AL141980 28.2050 -31.2448 HU 87 973 2 3 150
1980275N34340 1980 84 NA NA IVAN 1980-10-06 18:00:00 TS 28.1000 -31.1000 90 970 hurdat_atl main 1399 1380 O_____________ hurdat_atl AL141980 28.1000 -31.1000 HU 90 970 2 4 125
1980275N34340 1980 84 NA NA IVAN 1980-10-06 21:00:00 TS 27.9901 -30.8924 main 1380 1360 P_____________ AL141980 27.9901 -30.8924 HU 90 970 2 4 106
1980275N34340 1980 84 NA NA IVAN 1980-10-07 00:00:00 TS 28.0000 -30.7000 90 970 hurdat_atl main 1360 1339 O_____________ hurdat_atl AL141980 28.0000 -30.7000 HU 90 970 2 4 60
1980275N34340 1980 84 NA NA IVAN 1980-10-07 03:00:00 TS 28.1671 -30.5386 main 1339 1338 P_____________ AL141980 28.1671 -30.5386 HU 90 970 2 5 10
1980275N34340 1980 84 NA NA IVAN 1980-10-07 06:00:00 TS 28.5000 -30.6000 90 970 hurdat_atl main 1347 1347 O_____________ hurdat_atl AL141980 28.5000 -30.6000 HU 90 970 2 10 331
1980275N34340 1980 84 NA NA IVAN 1980-10-07 09:00:00 TS 29.0155 -31.0657 main 1395 1395 P_____________ AL141980 29.0155 -31.0657 HU 90 970 2 14 316
1980275N34340 1980 84 NA NA IVAN 1980-10-07 12:00:00 TS 29.5000 -31.7000 90 970 hurdat_atl main 1453 1453 O_____________ hurdat_atl AL141980 29.5000 -31.7000 HU 90 970 2 12 306
1980275N34340 1980 84 NA NA IVAN 1980-10-07 15:00:00 TS 29.7090 -32.1561 main 1502 1502 P_____________ AL141980 29.7090 -32.1561 HU 90 970 2 9 289
1980275N34340 1980 84 NA NA IVAN 1980-10-07 18:00:00 TS 29.8000 -32.7000 90 970 hurdat_atl main 1551 1551 O_____________ hurdat_atl AL141980 29.8000 -32.7000 HU 90 970 2 12 278
1980275N34340 1980 84 NA NA IVAN 1980-10-07 21:00:00 TS 29.8777 -33.4910 main 1628 1628 P_____________ AL141980 29.8777 -33.4910 HU 90 970 2 15 278
1980275N34340 1980 84 NA NA IVAN 1980-10-08 00:00:00 TS 30.0000 -34.4000 90 970 hurdat_atl main 1715 1715 O_____________ hurdat_atl AL141980 30.0000 -34.4000 HU 90 970 2 16 284
1980275N34340 1980 84 NA NA IVAN 1980-10-08 03:00:00 TS 30.2629 -35.3369 main 1803 1803 P_____________ AL141980 30.2629 -35.3369 HU 90 970 2 17 291
1980275N34340 1980 84 NA NA IVAN 1980-10-08 06:00:00 TS 30.6000 -36.2000 90 970 hurdat_atl main 1890 1890 O_____________ hurdat_atl AL141980 30.6000 -36.2000 HU 90 970 2 15 299
1980275N34340 1980 84 NA NA IVAN 1980-10-08 09:00:00 TS 30.9785 -36.8152 main 1950 1950 P_____________ AL141980 30.9785 -36.8152 HU 90 970 2 12 304
1980275N34340 1980 84 NA NA IVAN 1980-10-08 12:00:00 TS 31.3000 -37.4000 90 970 hurdat_atl main 2009 2009 O_____________ hurdat_atl AL141980 31.3000 -37.4000 HU 90 970 2 13 292
1980275N34340 1980 84 NA NA IVAN 1980-10-08 15:00:00 TS 31.4376 -38.1783 main 2086 2071 P_____________ AL141980 31.4376 -38.1783 HU 90 970 2 14 278
1980275N34340 1980 84 NA NA IVAN 1980-10-08 18:00:00 TS 31.5000 -39.0000 90 970 hurdat_atl main 2071 2022 O_____________ hurdat_atl AL141980 31.5000 -39.0000 HU 90 970 2 14 275
1980275N34340 1980 84 NA NA IVAN 1980-10-08 21:00:00 TS 31.5704 -39.8328 main 2022 1980 P_____________ AL141980 31.5704 -39.8328 HU 90 970 2 13 279
1980275N34340 1980 84 NA NA IVAN 1980-10-09 00:00:00 TS 31.7000 -40.5000 90 970 hurdat_atl main 1980 1946 O_____________ hurdat_atl AL141980 31.7000 -40.5000 HU 90 970 2 9 293
1980275N34340 1980 84 NA NA IVAN 1980-10-09 03:00:00 TS 31.9468 -40.8550 main 1942 1898 P_____________ AL141980 31.9468 -40.8550 HU 90 970 2 7 325
1980275N34340 1980 84 NA NA IVAN 1980-10-09 06:00:00 TS 32.3000 -41.0000 90 971 hurdat_atl main 1898 1855 O_____________ hurdat_atl AL141980 32.3000 -41.0000 HU 90 971 2 8 347
1980275N34340 1980 84 NA NA IVAN 1980-10-09 09:00:00 TS 32.7499 -41.0803 main 1855 1807 P_____________ AL141980 32.7499 -41.0803 HU 90 972 2 9 355
1980275N34340 1980 84 NA NA IVAN 1980-10-09 12:00:00 TS 33.2000 -41.1000 90 973 hurdat_atl main 1807 1773 O_____________ hurdat_atl AL141980 33.2000 -41.1000 HU 90 973 2 7 353
1980275N34340 1980 84 NA NA IVAN 1980-10-09 15:00:00 TS 33.4849 -41.1944 main 1773 1745 P_____________ AL141980 33.4849 -41.1944 HU 90 974 2 6 352
1980275N34340 1980 84 NA NA IVAN 1980-10-09 18:00:00 TS 33.8000 -41.2000 90 975 hurdat_atl main 1745 1708 O_____________ hurdat_atl AL141980 33.8000 -41.2000 HU 90 975 2 8 11
1980275N34340 1980 84 NA NA IVAN 1980-10-09 21:00:00 TS 34.2975 -41.0101 main 1708 1667 P_____________ AL141980 34.2975 -41.0101 HU 90 976 2 12 21
1980275N34340 1980 84 NA NA IVAN 1980-10-10 00:00:00 TS 34.9000 -40.7000 90 977 hurdat_atl main 1667 1629 O_____________ hurdat_atl AL141980 34.9000 -40.7000 HU 90 977 2 13 23
1980275N34340 1980 84 NA NA IVAN 1980-10-10 03:00:00 TS 35.5124 -40.3792 main 1629 1590 P_____________ AL141980 35.5124 -40.3792 HU 90 977 2 14 24
1980275N34340 1980 84 NA NA IVAN 1980-10-10 06:00:00 TS 36.2000 -40.0000 90 978 hurdat_atl main 1590 1554 O_____________ hurdat_atl AL141980 36.2000 -40.0000 HU 90 978 2 16 24
1980275N34340 1980 84 NA NA IVAN 1980-10-10 09:00:00 TS 36.9548 -39.5861 main 1545 1511 P_____________ AL141980 36.9548 -39.5861 HU 90 978 2 18 24
1980275N34340 1980 84 NA NA IVAN 1980-10-10 12:00:00 TS 37.8000 -39.1000 90 978 hurdat_atl main 1511 1481 O_____________ hurdat_atl AL141980 37.8000 -39.1000 HU 90 978 2 19 25
1980275N34340 1980 84 NA NA IVAN 1980-10-10 15:00:00 TS 38.6968 -38.5642 main 1473 1448 P_____________ AL141980 38.6968 -38.5642 HU 85 979 2 21 26
1980275N34340 1980 84 NA NA IVAN 1980-10-10 18:00:00 TS 39.7000 -37.9000 80 980 hurdat_atl main 1448 1430 O_____________ hurdat_atl AL141980 39.7000 -37.9000 HU 80 980 1 24 29
1980275N34340 1980 84 NA NA IVAN 1980-10-10 21:00:00 TS 40.8125 -37.0588 main 1431 1427 P_____________ AL141980 40.8125 -37.0588 HU 77 982 1 27 31
1980275N34340 1980 84 NA NA IVAN 1980-10-11 00:00:00 TS 42.0000 -36.1000 75 985 hurdat_atl main 1430 1428 O_____________ hurdat_atl AL141980 42.0000 -36.1000 HU 75 985 1 28 31
1980275N34340 1980 84 NA NA IVAN 1980-10-11 03:00:00 TS 43.1908 -35.1544 main 1432 1432 P_____________ AL141980 43.1908 -35.1544 HU 72 986 1 28 31
1980275N34340 1980 84 NA NA IVAN 1980-10-11 06:00:00 TS 44.4000 -34.1000 70 988 hurdat_atl main 1461 1461 O_____________ hurdat_atl AL141980 44.4000 -34.1000 HU 70 988 1 28 34
1980275N34340 1980 84 NA NA IVAN 1980-10-11 09:00:00 TS 45.5587 -32.9361 main 1510 1510 P_____________ AL141980 45.5587 -32.9361 HU 67 989 1 30 37
1980275N34340 1980 84 NA NA IVAN 1980-10-11 12:00:00 TS 46.8000 -31.5000 65 990 hurdat_atl main 1585 1428 O_____________ hurdat_atl AL141980 46.8000 -31.5000 HU 65 990 1 35 41
1980275N34340 1980 84 NA NA IVAN 1980-10-11 15:00:00 TS 48.2252 -29.5378 main 1410 1223 P_____________ AL141980 48.2252 -29.5378 HU 65 990 1 39 43
1980275N34340 1980 84 NA NA IVAN 1980-10-11 18:00:00 TS 49.7000 -27.5000 65 990 hurdat_atl main 1212 1071 O_____________ hurdat_atl AL141980 49.7000 -27.5000 HU 65 990 1 37 39
1980275N34340 1980 84 NA NA IVAN 1980-10-11 21:00:00 TS 51.1200 -25.8700 main 1062 953 P_____________ AL141980 51.1200 -25.8700 HU 62 990 0 34 34
1980275N34340 1980 84 NA NA IVAN 1980-10-12 00:00:00 ET 52.5000 -24.5000 60 990 hurdat_atl main 946 O_____________ hurdat_atl AL141980 52.5000 -24.5000 EX 60 990 -4 32 31

IBTrACS Databaseについて

本データベースは、米国NOAAが公開する1842年以降の世界の熱帯低気圧のベストトラックデータアーカイブInternational Best Track Archive for Climate Stewardship (IBTrACS)を、ウェブで閲覧しやすい形式に変換したものです。

最終更新日:2021-12-06